createdAt,value
2023-02-06T00:01:01.235Z,95019.44
2023-02-06T00:06:08.855Z,95024.63
2023-02-06T00:11:18.340Z,95033.87
2023-02-06T00:16:34.473Z,95040.06
2023-02-06T00:21:41.194Z,95037.08
2023-02-06T00:26:48.357Z,95042.45
2023-02-06T00:31:55.214Z,95030.81
2023-02-06T00:37:02.104Z,95045.34
2023-02-06T00:42:09.267Z,95045.20
2023-02-06T00:47:16.205Z,95053.39
2023-02-06T00:52:22.947Z,95057.02
2023-02-06T00:57:29.712Z,95062.19
2023-02-06T01:02:37.089Z,95069.47
2023-02-06T01:07:45.447Z,95077.06
2023-02-06T01:12:52.216Z,95063.78
2023-02-06T01:17:58.917Z,95068.29
2023-02-06T01:23:06.538Z,95077.48
2023-02-06T01:28:13.472Z,95069.05
2023-02-06T01:33:21.010Z,95072.40
2023-02-06T01:38:27.865Z,95094.92
2023-02-06T01:43:41.823Z,95083.00
2023-02-06T01:48:54.611Z,95074.91
2023-02-06T01:54:05.481Z,95076.53
2023-02-06T01:59:13.946Z,95082.54
2023-02-06T02:04:24.585Z,95077.25
2023-02-06T02:09:32.405Z,95080.03
2023-02-06T02:14:42.477Z,95080.89
2023-02-06T02:20:20.981Z,95080.83
2023-02-06T02:25:38.055Z,95085.47
2023-02-06T02:31:07.554Z,95078.80
2023-02-06T02:36:37.868Z,95070.15
2023-02-06T02:42:07.070Z,95059.94
2023-02-06T02:47:16.740Z,95065.33
2023-02-06T02:52:23.407Z,95069.88
2023-02-06T02:57:32.866Z,95070.22
2023-02-06T03:02:41.371Z,95073.82
2023-02-06T03:08:01.034Z,95072.70
2023-02-06T03:13:31.250Z,95068.42
2023-02-06T03:19:03.418Z,95070.69
2023-02-06T03:24:14.586Z,95070.46
2023-02-06T03:29:22.345Z,95070.70
2023-02-06T03:35:01.842Z,95076.21
2023-02-06T03:40:10.154Z,95086.26
2023-02-06T03:45:36.253Z,94912.80
2023-02-06T03:50:46.117Z,95080.34
2023-02-06T03:55:56.054Z,95078.15
2023-02-06T04:01:06.135Z,95085.12
2023-02-06T04:06:12.945Z,95091.54
2023-02-06T04:11:19.812Z,95090.81
2023-02-06T04:16:26.597Z,95081.50
2023-02-06T04:21:33.544Z,95087.88
2023-02-06T04:26:40.297Z,95090.88
2023-02-06T04:31:47.001Z,95086.67
2023-02-06T04:36:53.745Z,95080.67
2023-02-06T04:42:00.872Z,95081.35
2023-02-06T04:47:07.697Z,95072.64
2023-02-06T04:52:14.750Z,95072.67
2023-02-06T04:57:21.655Z,95071.00
2023-02-06T05:02:28.544Z,95064.45
2023-02-06T05:07:35.826Z,95056.02
2023-02-06T05:12:43.679Z,95063.06
2023-02-06T05:17:50.751Z,95053.44
2023-02-06T05:22:57.886Z,95062.95
2023-02-06T05:28:07.061Z,95065.71
2023-02-06T05:33:14.249Z,95078.22
2023-02-06T05:38:21.462Z,95068.47
2023-02-06T05:43:28.589Z,95076.87
2023-02-06T05:48:35.754Z,95076.06
2023-02-06T05:53:42.763Z,95070.67
2023-02-06T05:58:49.673Z,95069.03
2023-02-06T06:03:56.748Z,95063.28
2023-02-06T06:09:03.887Z,95057.75
2023-02-06T06:14:10.897Z,95053.23
2023-02-06T06:19:18.789Z,95046.91
2023-02-06T06:24:26.082Z,95045.45
2023-02-06T06:29:32.959Z,95046.98
2023-02-06T06:34:39.699Z,95052.78
2023-02-06T06:39:46.733Z,95057.99
2023-02-06T06:44:53.777Z,95076.47
2023-02-06T06:50:00.712Z,95069.82
2023-02-06T06:55:09.781Z,95069.61
2023-02-06T07:00:17.602Z,95056.56
2023-02-06T07:05:24.661Z,95043.38
2023-02-06T07:10:31.401Z,95040.06
2023-02-06T07:15:38.308Z,95042.31
2023-02-06T07:20:45.492Z,95042.95
2023-02-06T07:25:52.330Z,95045.86
2023-02-06T07:31:05.149Z,95038.44
2023-02-06T07:36:19.259Z,95039.25
2023-02-06T07:41:26.418Z,95037.48
2023-02-06T07:46:35.055Z,95037.20
2023-02-06T07:51:43.854Z,95042.53
2023-02-06T07:56:50.800Z,95055.44
2023-02-06T08:01:58.090Z,95057.89
2023-02-06T08:07:09.237Z,95050.66
2023-02-06T08:12:15.995Z,95047.00
2023-02-06T08:17:23.212Z,95042.68
2023-02-06T08:22:31.781Z,95056.96
2023-02-06T08:27:38.572Z,95042.70
2023-02-06T08:32:45.747Z,95032.55
2023-02-06T08:37:52.460Z,95041.78
2023-02-06T08:42:59.594Z,95046.45
2023-02-06T08:48:06.701Z,95055.83
2023-02-06T08:53:13.864Z,95052.82
2023-02-06T08:58:20.638Z,95053.14
2023-02-06T09:03:27.991Z,95052.44
2023-02-06T09:08:35.505Z,95050.04
2023-02-06T09:13:42.635Z,95063.98
2023-02-06T09:18:53.968Z,95056.64
2023-02-06T09:24:05.108Z,95068.75
2023-02-06T09:29:14.259Z,95066.14
2023-02-06T09:34:21.093Z,95067.08
2023-02-06T09:39:28.616Z,95069.93
2023-02-06T09:44:42.802Z,95079.08
2023-02-06T09:50:09.000Z,95069.77
2023-02-06T09:55:26.374Z,95069.20
2023-02-06T10:00:41.982Z,95065.41
2023-02-06T10:05:55.998Z,95057.08
2023-02-06T10:11:13.161Z,95059.61
2023-02-06T10:16:48.936Z,95060.09
2023-02-06T10:22:14.951Z,95051.42
2023-02-06T10:27:23.062Z,95048.78
2023-02-06T10:32:49.547Z,95031.58
2023-02-06T10:38:12.729Z,95020.00
2023-02-06T10:43:35.643Z,95016.99
2023-02-06T10:49:04.469Z,95009.00
2023-02-06T10:54:39.612Z,94999.98
2023-02-06T10:59:53.641Z,95002.08
2023-02-06T11:05:22.167Z,95000.73
2023-02-06T11:10:32.686Z,94997.88
2023-02-06T11:15:46.491Z,94986.27
2023-02-06T11:20:55.780Z,94973.66
2023-02-06T11:26:22.372Z,94970.13
2023-02-06T11:31:54.406Z,94963.89
2023-02-06T11:37:27.335Z,94947.61
2023-02-06T11:42:35.891Z,94938.52
2023-02-06T11:47:43.069Z,94940.97
2023-02-06T11:52:50.128Z,94933.64
2023-02-06T11:58:22.207Z,94932.16
2023-02-06T12:04:00.277Z,94921.62
2023-02-06T12:09:13.810Z,94922.92
2023-02-06T12:14:41.909Z,94929.71
2023-02-06T12:19:53.263Z,94925.08
2023-02-06T12:25:00.824Z,94915.41
2023-02-06T12:30:33.012Z,94923.21
2023-02-06T12:35:48.004Z,94911.97
2023-02-06T12:41:25.967Z,94919.28
2023-02-06T12:46:33.909Z,94921.95
2023-02-06T12:51:57.229Z,94915.09
2023-02-06T12:57:23.110Z,94918.59
2023-02-06T13:02:53.728Z,94908.75
2023-02-06T13:08:07.863Z,94907.08
2023-02-06T13:13:42.537Z,94904.02
2023-02-06T13:18:53.113Z,94900.60
2023-02-06T13:24:10.175Z,94907.72
2023-02-06T13:29:35.217Z,94903.08
2023-02-06T13:34:57.073Z,94897.86
2023-02-06T13:40:27.970Z,94901.50
2023-02-06T13:45:47.807Z,94910.14
2023-02-06T13:51:24.307Z,94907.27
2023-02-06T13:56:47.216Z,94904.23
2023-02-06T14:01:54.967Z,94909.56
2023-02-06T14:07:15.082Z,94909.78
2023-02-06T14:12:44.810Z,94903.06
2023-02-06T14:18:10.971Z,94903.06
2023-02-06T14:23:38.593Z,94913.67
2023-02-06T14:28:58.805Z,94904.17
2023-02-06T14:34:25.316Z,94910.02
2023-02-06T14:39:53.602Z,94909.25
2023-02-06T14:45:07.633Z,94910.44
2023-02-06T14:50:27.020Z,94903.69
2023-02-06T14:55:38.317Z,94911.02
2023-02-06T15:00:45.539Z,94919.48
2023-02-06T15:06:11.841Z,94922.25
2023-02-06T15:11:25.192Z,94910.42
2023-02-06T15:16:33.953Z,94917.03
2023-02-06T15:21:43.512Z,94926.23
2023-02-06T15:27:06.217Z,94957.28
2023-02-06T15:32:19.989Z,94927.84
2023-02-06T15:37:30.672Z,94929.48
2023-02-06T15:42:38.514Z,94930.44
2023-02-06T15:47:46.431Z,94937.72
2023-02-06T15:52:53.777Z,94947.34
2023-02-06T15:58:03.920Z,94943.99
2023-02-06T16:03:14.963Z,94947.40
2023-02-06T16:08:38.421Z,94950.94
2023-02-06T16:13:47.556Z,94953.59
2023-02-06T16:18:56.558Z,94961.72
2023-02-06T16:24:17.257Z,94965.86
2023-02-06T16:29:31.382Z,94982.52
2023-02-06T16:34:47.611Z,94989.45
2023-02-06T16:39:55.807Z,94991.78
2023-02-06T16:45:09.893Z,94994.72
2023-02-06T16:50:18.081Z,95028.03
2023-02-06T16:55:29.417Z,94999.77
2023-02-06T17:00:36.504Z,95018.85
2023-02-06T17:05:45.522Z,95046.59
2023-02-06T17:10:52.765Z,95050.59
2023-02-06T17:15:59.651Z,95061.96
2023-02-06T17:21:06.548Z,95069.37
2023-02-06T17:26:16.920Z,95069.97
2023-02-06T17:31:23.805Z,95069.86
2023-02-06T17:36:32.350Z,95083.46
2023-02-06T17:41:39.143Z,95090.73
2023-02-06T17:46:46.336Z,95093.59
2023-02-06T17:51:53.237Z,95100.98
2023-02-06T17:56:59.973Z,95099.06
2023-02-06T18:02:06.757Z,95108.67
2023-02-06T18:07:13.777Z,95111.51
2023-02-06T18:12:21.054Z,95113.86
2023-02-06T18:17:27.843Z,95106.84
2023-02-06T18:22:36.756Z,95106.52
2023-02-06T18:27:46.295Z,95107.45
2023-02-06T18:32:53.397Z,95116.27
2023-02-06T18:38:00.306Z,95129.52
2023-02-06T18:43:08.274Z,95131.02
2023-02-06T18:48:15.824Z,95135.78
2023-02-06T18:53:22.567Z,95143.83
2023-02-06T18:58:29.556Z,95130.26
2023-02-06T19:03:42.200Z,95134.07
2023-02-06T19:08:48.901Z,95128.69
2023-02-06T19:13:56.021Z,95140.48
2023-02-06T19:19:03.013Z,95144.64
2023-02-06T19:24:17.212Z,95148.63
2023-02-06T19:29:35.140Z,95157.05
2023-02-06T19:34:35.150Z,95152.94
2023-02-06T19:39:43.565Z,95150.69
2023-02-06T19:44:58.177Z,95155.61
2023-02-06T19:50:06.037Z,95165.66
2023-02-06T19:55:13.543Z,95161.82
2023-02-06T20:00:20.782Z,95157.45
2023-02-06T20:05:28.105Z,95151.38
2023-02-06T20:10:36.762Z,95162.55
2023-02-06T20:15:43.656Z,95154.92
2023-02-06T20:20:50.430Z,95149.50
2023-02-06T20:25:58.821Z,95157.66
2023-02-06T20:31:13.359Z,95159.95
2023-02-06T20:36:24.484Z,95153.52
2023-02-06T20:41:34.731Z,95158.27
2023-02-06T20:46:42.967Z,95171.84
2023-02-06T20:51:51.442Z,95181.86
2023-02-06T20:56:59.522Z,95178.56
2023-02-06T21:02:06.485Z,95179.52
2023-02-06T21:07:13.621Z,95176.48
2023-02-06T21:12:20.811Z,95186.66
2023-02-06T21:17:27.761Z,95193.09
2023-02-06T21:22:35.344Z,95188.48
2023-02-06T21:27:42.117Z,95196.51
2023-02-06T21:32:48.937Z,95190.52
2023-02-06T21:37:56.520Z,95201.50
2023-02-06T21:43:03.583Z,95213.86
2023-02-06T21:48:11.018Z,95215.76
2023-02-06T21:53:17.883Z,95213.20
2023-02-06T21:58:24.812Z,95207.59
2023-02-06T22:03:31.912Z,95208.16
2023-02-06T22:08:41.901Z,95198.39
2023-02-06T22:13:50.003Z,95202.52
2023-02-06T22:18:57.454Z,95214.16
2023-02-06T22:24:07.541Z,95210.00
2023-02-06T22:29:17.635Z,95215.19
2023-02-06T22:34:25.034Z,95227.69
2023-02-06T22:39:32.123Z,95216.48
2023-02-06T22:44:38.867Z,95220.94
2023-02-06T22:49:45.808Z,95226.34
2023-02-06T22:54:52.946Z,95241.70
2023-02-06T23:00:00.083Z,95247.08
2023-02-06T23:11:32.223Z,95247.63
2023-02-06T23:16:39.470Z,95244.96
2023-02-06T23:21:50.232Z,95253.72
2023-02-06T23:26:57.688Z,95253.22
2023-02-06T23:32:04.718Z,95261.52
2023-02-06T23:37:11.658Z,95265.73
2023-02-06T23:42:19.223Z,95262.98
2023-02-06T23:47:26.021Z,95259.83
2023-02-06T23:52:33.439Z,95257.11
2023-02-06T23:57:41.568Z,95266.58
